Northfield, Connecticut
Current Conditions -  °F | °C
As of 9:15 PM on Sunday 25 Jan 2015 (Local Time) from KOXC Reporting Station
Clear Clear  
Wind Chill: 10°   Ceiling: Unl
Heat Index: 21°   Visibility: 10mi
Dew Point:   Wind: 10mph
Humidity: 42%   Direction: 350°N
Pressure: 29.94"   Gusts: NA
Location:  41.69°N, 73.11°W
Report Text: KOXC 260215Z 35009KT 10SM CLR M06/M17 A2994 RMK AO1
Loading
Personal Weather Stations






























Interactive Weather Map New forecast layout! Learn more

10-Day Weather Forecast

Advertisements
Track Severe Weather on mobile